createdAt,value
2022-12-23T00:01:03.505Z,9.49
2022-12-23T00:06:07.656Z,9.50
2022-12-23T00:11:11.829Z,9.49
2022-12-23T00:16:16.254Z,9.52
2022-12-23T00:21:20.156Z,9.52
2022-12-23T00:26:24.307Z,9.54
2022-12-23T00:31:28.546Z,9.54
2022-12-23T00:36:32.791Z,9.56
2022-12-23T00:41:36.810Z,9.56
2022-12-23T00:46:40.967Z,9.56
2022-12-23T00:51:45.159Z,9.59
2022-12-23T00:56:49.279Z,9.61
2022-12-23T01:01:53.583Z,9.60
2022-12-23T01:06:57.603Z,9.61
2022-12-23T01:12:01.744Z,9.63
2022-12-23T01:17:05.946Z,9.66
2022-12-23T01:22:10.082Z,9.66
2022-12-23T01:27:14.252Z,9.64
2022-12-23T01:32:18.564Z,9.65
2022-12-23T01:37:22.591Z,9.64
2022-12-23T01:42:26.759Z,9.60
2022-12-23T01:47:30.884Z,9.57
2022-12-23T01:52:35.043Z,9.55
2022-12-23T01:57:39.220Z,9.54
2022-12-23T02:02:43.473Z,9.51
2022-12-23T02:07:47.567Z,9.49
2022-12-23T02:12:51.697Z,9.48
2022-12-23T02:17:55.857Z,9.48
2022-12-23T02:23:00.040Z,9.49
2022-12-23T02:28:04.175Z,9.50
2022-12-23T02:33:08.347Z,9.51
2022-12-23T02:38:12.548Z,9.54
2022-12-23T02:43:16.688Z,9.53
2022-12-23T02:48:20.844Z,9.52
2022-12-23T02:53:24.983Z,9.51
2022-12-23T02:58:29.180Z,9.52
2022-12-23T03:03:33.490Z,9.53
2022-12-23T03:08:37.469Z,9.53
2022-12-23T03:13:41.626Z,9.53
2022-12-23T03:18:45.815Z,9.54
2022-12-23T03:23:55.251Z,9.53
2022-12-23T03:28:54.108Z,9.52
2022-12-23T03:33:58.286Z,9.50
2022-12-23T03:39:02.469Z,9.49
2022-12-23T03:44:06.633Z,9.49
2022-12-23T03:49:10.784Z,9.46
2022-12-23T03:54:14.903Z,9.46
2022-12-23T03:59:19.090Z,9.47
2022-12-23T04:04:23.379Z,9.48
2022-12-23T04:09:27.429Z,9.46
2022-12-23T04:14:31.599Z,9.45
2022-12-23T04:19:35.724Z,9.45
2022-12-23T04:24:39.910Z,9.44
2022-12-23T04:29:44.068Z,9.44
2022-12-23T04:34:48.225Z,9.42
2022-12-23T04:39:52.407Z,9.40
2022-12-23T04:44:56.560Z,9.42
2022-12-23T04:50:00.732Z,9.41
2022-12-23T04:55:02.987Z,9.40
2022-12-23T05:00:07.140Z,9.40
2022-12-23T05:05:11.324Z,9.37
2022-12-23T05:10:15.462Z,9.37
2022-12-23T05:15:19.640Z,9.35
2022-12-23T05:20:23.783Z,9.35
2022-12-23T05:25:26.038Z,9.32
2022-12-23T05:30:30.219Z,9.32
2022-12-23T05:35:34.383Z,9.31
2022-12-23T05:40:38.563Z,9.32
2022-12-23T05:45:42.733Z,9.30
2022-12-23T05:50:46.852Z,9.31
2022-12-23T05:55:51.043Z,9.29
2022-12-23T06:00:55.206Z,9.29
2022-12-23T06:05:59.375Z,9.27
2022-12-23T06:11:03.623Z,9.27
2022-12-23T06:16:07.730Z,9.30
2022-12-23T06:21:11.865Z,9.29
2022-12-23T06:26:16.035Z,9.27
2022-12-23T06:31:20.275Z,9.29
2022-12-23T06:36:24.352Z,9.29
2022-12-23T06:41:28.497Z,9.28
2022-12-23T06:46:32.721Z,9.25
2022-12-23T06:51:36.835Z,9.25
2022-12-23T06:56:40.953Z,9.23
2022-12-23T07:01:45.204Z,9.22
2022-12-23T07:06:49.303Z,9.21
2022-12-23T07:11:53.438Z,9.19
2022-12-23T07:16:57.704Z,9.19
2022-12-23T07:22:01.853Z,9.17
2022-12-23T07:27:05.945Z,9.17
2022-12-23T07:32:10.152Z,9.17
2022-12-23T07:37:14.252Z,9.16
2022-12-23T07:42:44.394Z,9.16
2022-12-23T07:47:22.591Z,9.16
2022-12-23T07:52:26.754Z,9.15
2022-12-23T07:57:30.908Z,9.17
2022-12-23T08:02:35.196Z,9.16
2022-12-23T08:07:39.203Z,9.16
2022-12-23T08:12:43.408Z,9.14
2022-12-23T08:17:47.611Z,9.16
2022-12-23T08:22:51.741Z,9.17
2022-12-23T08:27:55.870Z,9.19
2022-12-23T08:33:00.111Z,9.19
2022-12-23T08:38:04.207Z,9.20
2022-12-23T08:43:08.363Z,9.22
2022-12-23T08:48:12.518Z,9.22
2022-12-23T08:53:16.683Z,9.25
2022-12-23T08:58:20.832Z,9.28
2022-12-23T09:03:25.124Z,9.29
2022-12-23T09:08:29.222Z,9.29
2022-12-23T09:13:35.940Z,9.30
2022-12-23T09:18:37.495Z,9.27
2022-12-23T09:23:41.648Z,9.28
2022-12-23T09:28:45.823Z,9.29
2022-12-23T09:33:49.963Z,9.30
2022-12-23T09:38:54.117Z,9.33
2022-12-23T09:43:58.306Z,9.36
2022-12-23T09:49:02.427Z,9.40
2022-12-23T09:54:09.648Z,9.41
2022-12-23T09:59:10.755Z,9.42
2022-12-23T10:04:15.092Z,9.46
2022-12-23T10:09:19.130Z,9.48
2022-12-23T10:14:23.236Z,9.50
2022-12-23T10:19:27.423Z,9.52
2022-12-23T10:24:31.610Z,9.53
2022-12-23T10:29:35.738Z,9.55
2022-12-23T10:34:39.910Z,9.57
2022-12-23T10:39:44.062Z,9.55
2022-12-23T10:44:48.204Z,9.57
2022-12-23T10:49:52.481Z,9.59
2022-12-23T10:54:54.657Z,9.65
2022-12-23T10:59:58.808Z,9.72
2022-12-23T11:05:02.990Z,9.76
2022-12-23T11:10:07.153Z,9.76
2022-12-23T11:15:11.450Z,9.73
2022-12-23T11:20:15.651Z,9.72
2022-12-23T11:25:19.619Z,9.72
2022-12-23T11:30:23.746Z,9.75
2022-12-23T11:35:27.966Z,9.79
2022-12-23T11:40:32.081Z,9.84
2022-12-23T11:45:36.289Z,9.85
2022-12-23T11:50:40.448Z,9.84
2022-12-23T11:55:44.571Z,9.81
2022-12-23T12:00:55.156Z,9.77
2022-12-23T12:05:52.888Z,9.77
2022-12-23T12:10:57.089Z,9.82
2022-12-23T12:16:01.224Z,9.82
2022-12-23T12:21:05.397Z,9.80
2022-12-23T12:26:09.586Z,9.75
2022-12-23T12:31:13.823Z,9.66
2022-12-23T12:36:17.890Z,9.67
2022-12-23T12:41:22.033Z,9.63
2022-12-23T12:46:26.279Z,9.57
2022-12-23T12:51:30.352Z,9.53
2022-12-23T12:56:34.515Z,9.48
2022-12-23T13:01:38.771Z,9.44
2022-12-23T13:06:42.896Z,9.41
2022-12-23T13:11:47.008Z,9.42
2022-12-23T13:16:51.201Z,9.45
2022-12-23T13:21:55.345Z,9.42
2022-12-23T13:26:59.518Z,9.39
2022-12-23T13:32:03.684Z,9.35
2022-12-23T13:37:07.919Z,9.24
2022-12-23T13:42:11.980Z,9.20
2022-12-23T13:47:16.116Z,9.12
2022-12-23T13:52:20.288Z,9.05
2022-12-23T13:57:24.432Z,9.08
2022-12-23T14:02:28.677Z,9.17
2022-12-23T14:07:32.770Z,9.17
2022-12-23T14:12:36.928Z,9.15
2022-12-23T14:17:41.118Z,9.07
2022-12-23T14:22:45.247Z,9.01
2022-12-23T14:27:49.413Z,8.96
2022-12-23T14:32:53.565Z,8.95
2022-12-23T14:37:57.747Z,8.92
2022-12-23T14:43:01.894Z,8.89
2022-12-23T14:48:06.069Z,8.90
2022-12-23T14:53:10.228Z,8.86
2022-12-23T14:58:14.389Z,8.83
2022-12-23T15:03:18.638Z,8.81
2022-12-23T15:08:22.744Z,8.82
2022-12-23T15:13:26.928Z,8.81
2022-12-23T15:18:31.039Z,8.81
2022-12-23T15:23:35.220Z,8.80
2022-12-23T15:28:39.349Z,8.78
2022-12-23T15:31:46.137Z,8.79
2022-12-23T15:38:54.657Z,8.83
2022-12-23T15:43:58.788Z,8.86
2022-12-23T15:49:02.973Z,9.02
2022-12-23T15:54:07.137Z,9.23
2022-12-23T15:59:11.288Z,9.53
2022-12-23T16:04:15.479Z,9.68
2022-12-23T16:09:19.642Z,9.87
2022-12-23T16:14:23.805Z,10.33
2022-12-23T16:19:27.916Z,10.47
2022-12-23T16:24:32.114Z,10.60
2022-12-23T16:29:36.290Z,10.77
2022-12-23T16:34:40.440Z,10.81
2022-12-23T16:39:44.594Z,10.83
2022-12-23T16:44:48.777Z,10.92
2022-12-23T16:49:52.901Z,10.97
2022-12-23T16:54:57.096Z,11.04
2022-12-23T17:00:01.203Z,11.11
2022-12-23T17:05:05.378Z,11.11
2022-12-23T17:10:09.538Z,11.20
2022-12-23T17:15:11.827Z,11.29
2022-12-23T17:20:15.958Z,11.33
2022-12-23T17:25:24.536Z,11.39
2022-12-23T17:30:24.323Z,11.47
2022-12-23T17:35:28.441Z,11.56
2022-12-23T17:40:32.609Z,11.56
2022-12-23T17:45:36.818Z,11.58
2022-12-23T17:50:40.946Z,11.65
2022-12-23T17:55:45.254Z,11.71
2022-12-23T18:00:49.282Z,11.71
2022-12-23T18:05:59.355Z,11.73
2022-12-23T18:10:57.611Z,11.66
2022-12-23T18:16:01.744Z,11.69
2022-12-23T18:21:05.911Z,11.58
2022-12-23T18:26:10.072Z,11.48
2022-12-23T18:31:14.288Z,11.36
2022-12-23T18:36:18.462Z,11.27
2022-12-23T18:41:22.543Z,11.24
2022-12-23T18:46:26.794Z,11.19
2022-12-23T18:51:30.925Z,11.17
2022-12-23T18:56:35.011Z,11.15
2022-12-23T19:01:37.383Z,11.14
2022-12-23T19:06:41.469Z,11.08
2022-12-23T19:11:43.735Z,11.10
2022-12-23T19:16:51.448Z,11.05
2022-12-23T19:21:52.071Z,11.07
2022-12-23T19:26:56.213Z,11.04
2022-12-23T19:32:00.398Z,11.01
2022-12-23T19:37:04.545Z,11.02
2022-12-23T19:42:08.715Z,10.99
2022-12-23T19:47:12.887Z,10.96
2022-12-23T19:52:17.012Z,10.92
2022-12-23T19:57:21.183Z,10.96
2022-12-23T20:02:25.391Z,10.95
2022-12-23T20:07:29.523Z,10.93
2022-12-23T20:12:33.676Z,10.91
2022-12-23T20:17:37.812Z,10.90
2022-12-23T20:22:42.018Z,10.95
2022-12-23T20:27:46.147Z,10.99
2022-12-23T20:32:50.287Z,11.00
2022-12-23T20:37:54.471Z,11.00
2022-12-23T20:42:58.618Z,10.98
2022-12-23T20:48:02.830Z,10.98
2022-12-23T20:53:06.973Z,11.06
2022-12-23T20:58:09.210Z,11.08
2022-12-23T21:03:13.451Z,11.02
2022-12-23T21:08:15.677Z,11.01
2022-12-23T21:13:19.845Z,11.02
2022-12-23T21:18:23.995Z,11.02
2022-12-23T21:23:28.164Z,10.96
2022-12-23T21:28:32.327Z,10.91
2022-12-23T21:33:36.506Z,10.93
2022-12-23T21:38:40.630Z,10.89
2022-12-23T21:43:44.827Z,10.73
2022-12-23T21:48:48.984Z,10.62
2022-12-23T21:53:53.110Z,10.57
2022-12-23T21:58:57.288Z,10.52
2022-12-23T22:04:01.458Z,10.49
2022-12-23T22:09:05.588Z,10.44
2022-12-23T22:14:09.825Z,10.36
2022-12-23T22:19:13.918Z,10.34
2022-12-23T22:24:18.102Z,10.34
2022-12-23T22:29:22.231Z,10.33
2022-12-23T22:34:26.402Z,10.33
2022-12-23T22:39:30.558Z,10.36
2022-12-23T22:44:34.744Z,10.33
2022-12-23T22:49:38.899Z,10.33
2022-12-23T22:54:41.150Z,10.34
2022-12-23T22:59:45.491Z,10.33
2022-12-23T23:04:47.592Z,10.34
2022-12-23T23:09:51.772Z,10.35
2022-12-23T23:14:56.032Z,10.37
2022-12-23T23:20:07.793Z,10.34
2022-12-23T23:25:10.831Z,10.32
2022-12-23T23:35:12.659Z,10.28
2022-12-23T23:40:16.752Z,10.28
2022-12-23T23:45:20.876Z,10.26
2022-12-23T23:50:25.070Z,10.28
2022-12-23T23:55:29.205Z,10.27
